Puerto Vallarta, Mexico

9:52 PM CST on November 23, 2014 (GMT -0600)
Lic Gustavo Diaz Ordaz International | Change Station
CLOSE
Current Station
Airport
Location: Puerto Vallarta,
Elevation: 20 ft
Nearby Weather Stations

Elev 20 ft 20.68 °N, 105.25 °W | Updated 1 hour ago

Mostly Cloudy
Mostly Cloudy
77 °F
Feels Like 77 °F
N
5
Wind Variable Wind from NE

Today
High -- | Low -- °F
--% Chance of Precip.
Yesterday
High -- | Low -- °F
Precip. -- in
7:15 AM 6:18 PM
Waxing Crescent, 3% visible
Pressure 29.88 in
Visibility 10.0 miles
Clouds Mostly Cloudy 3000 ft
Dew Point 72 °F
Humidity 83%
Rainfall 0.00 in
Snow Depth Not available.
UV 0 out of 12
Pollen Not available.
Air Quality Not available.
Flu Activity Not available.
METAR MMPR 240244Z 04004KT 10SM BKN030 25/22 A2988 RMK SLP116 52018 954 8/500

More Conditions Fewer Conditions

Pressure 29.88 in
Visibility 10.0 miles
Clouds Mostly Cloudy 3000 ft
Dew Point 72 °F
Humidity 83%
Rainfall 0.00 in
Snow Depth Not available.
UV 0 out of 12
Pollen Not available.
Air Quality Not available.
Flu Activity Not available.
METAR MMPR 240244Z 04004KT 10SM BKN030 25/22 A2988 RMK SLP116 52018 954 8/500

More Conditions Fewer Conditions

10-Day Weather Forecast

Almanac

Astronomy

Nov. 23, 2014 Rise Set
Actual Time
Civil Twilight
Nautical Twilight
Astronomical Twilight
Moon
Length of Visible Light
Length of Day
Tomorrow will be .
, % of the Moon is Illuminated

Today's Extremes

Country Highs Country Lows

Community

WunderPhotos

Upload Photos

1,773,262 photos uploaded!

WunderBlogs® & News

Nearby

Air Quality

  Air Quality AQ Index Pollutant
Not available.

Snow Depth

Station Depth Elevation

Earthquake Activity

City Distance Mag. Time & Date
Minimum magnitude displayed is 2.5.

Coastal Water Temperatures

Place Temperature

Nearby Weather Stations